Vn Rebel _ — ILBR — position and weather

sailwx.info

Track history (hours):
 
Tides and Currents Weather Stations Pressure Air Temp Water Temp Dewpoint Dewpoint Depression Visibility Wind Speed Wind Dir Waves Ship Positions

Vn Rebel _

Last reported at 2015-Jun-15 18:33 UTC. Time now 2015-Jul-05 00:11 UTC.
Position N 43°05' E 005°55'.
Warning: this ship's position is 19 days out of date.

Length 45 m; draft 2.4 m.

MMSI: 247010300.

Date/timePositionNaut miles runAvg speedWind from/ knotsBaromVisibWave heightAir tempDewpointWater temp
2015-Jun-15 18:33N 43°05' E 005°55'8 7.7
2015-Jun-15 17:33N 43°02' E 006°05'8 7.6
2015-Jun-15 16:30N 42°58' E 006°14'8 7.9
2015-Jun-15 15:32N 42°56' E 006°24'16 8.0
2015-Jun-15 13:33N 42°54' E 006°46'10 3.1
2015-Jun-15 10:21N 42°53' E 006°59'7 8.6
2015-Jun-15 09:33N 42°54' E 006°50'8 8.2
2015-Jun-15 08:33N 42°55' E 006°39'8 7.5
2015-Jun-15 07:32N 42°57' E 006°29'8 7.7
2015-Jun-15 06:31N 42°58' E 006°18'17 8.6
2015-Jun-15 04:33N 43°05' E 005°57'3 2.5
2015-Jun-15 03:33N 43°07' E 005°55'  
2015-Jun-12 09:05N 43°07' E 005°55'0 0.0
2015-Jun-12 08:33N 43°07' E 005°55'0 0.0
2015-Jun-12 07:33N 43°07' E 005°55'1 0.0
2015-Jun-11 09:33N 43°07' E 005°55'2 1.8
2015-Jun-11 08:33N 43°05' E 005°57'4 3.8
2015-Jun-11 07:32N 43°02' E 005°60'3 3.2
2015-Jun-11 06:33N 43°05' E 005°57'2 0.3
2015-Jun-10 22:33N 43°06' E 005°55'10 7.5
2015-Jun-10 21:15N 42°60' E 006°06'2 2.8
2015-Jun-10 20:28N 43°01' E 006°03'2 2.4
2015-Jun-10 19:32N 43°03' E 006°02'2 0.7
2015-Jun-10 16:11N 43°03' E 006°05'5 1.4
2015-Jun-10 12:33N 43°05' E 005°58'3 3.4
2015-Jun-10 11:33N 43°07' E 005°55'0 0.0
2015-Jun-09 16:12N 43°07' E 005°55'1 1.3
2015-Jun-09 15:33N 43°07' E 005°54'0 0.1
2015-Jun-09 14:33N 43°07' E 005°54'0 0.1
2015-Jun-09 13:34N 43°07' E 005°54'0 0.1
2015-Jun-09 12:34N 43°07' E 005°54'0 0.1
2015-Jun-09 11:33N 43°07' E 005°54'0 0.0
2015-Jun-09 10:33N 43°07' E 005°54'0 0.0
2015-Jun-09 09:34N 43°07' E 005°54'1 0.5
2015-Jun-09 08:33N 43°06' E 005°55'9 6.7
2015-Jun-09 07:10N 42°57' E 005°52'5 7.9
2015-Jun-09 06:33N 42°53' E 005°48'8 8.1
2015-Jun-09 05:30N 42°46' E 005°42'8 8.3
2015-Jun-09 04:31N 42°39' E 005°36'8 8.3
2015-Jun-09 03:33N 42°32' E 005°30'9 8.4
2015-Jun-09 02:26N 42°25' E 005°24'17 1.3
2015-Jun-08 13:10N 42°29' E 005°46'39 4.5
2015-Jun-08 04:33N 43°07' E 005°55'  
Track history (hours):
 
Tides and Currents Weather Stations Pressure Air Temp Water Temp Dewpoint Dewpoint Depression Visibility Wind Speed Wind Dir Waves Ship Positions

Vn Rebel _

Last reported at 2015-Jun-15 18:33 UTC. Time now 2015-Jul-05 00:11 UTC.
Position N 43°05' E 005°55'.
Warning: this ship's position is 19 days out of date.

Length 45 m; draft 2.4 m.

MMSI: 247010300.

Date/timePositionNaut miles runAvg speedWind from/ knotsBaromVisibWave heightAir tempDewpointWater temp
2015-Jun-15 18:33N 43°05' E 005°55'8 7.7
2015-Jun-15 17:33N 43°02' E 006°05'8 7.6
2015-Jun-15 16:30N 42°58' E 006°14'8 7.9
2015-Jun-15 15:32N 42°56' E 006°24'16 8.0
2015-Jun-15 13:33N 42°54' E 006°46'10 3.1
2015-Jun-15 10:21N 42°53' E 006°59'7 8.6
2015-Jun-15 09:33N 42°54' E 006°50'8 8.2
2015-Jun-15 08:33N 42°55' E 006°39'8 7.5
2015-Jun-15 07:32N 42°57' E 006°29'8 7.7
2015-Jun-15 06:31N 42°58' E 006°18'17 8.6
2015-Jun-15 04:33N 43°05' E 005°57'3 2.5
2015-Jun-15 03:33N 43°07' E 005°55'  
2015-Jun-12 09:05N 43°07' E 005°55'0 0.0
2015-Jun-12 08:33N 43°07' E 005°55'0 0.0
2015-Jun-12 07:33N 43°07' E 005°55'1 0.0
2015-Jun-11 09:33N 43°07' E 005°55'2 1.8
2015-Jun-11 08:33N 43°05' E 005°57'4 3.8
2015-Jun-11 07:32N 43°02' E 005°60'3 3.2
2015-Jun-11 06:33N 43°05' E 005°57'2 0.3
2015-Jun-10 22:33N 43°06' E 005°55'10 7.5
2015-Jun-10 21:15N 42°60' E 006°06'2 2.8
2015-Jun-10 20:28N 43°01' E 006°03'2 2.4
2015-Jun-10 19:32N 43°03' E 006°02'2 0.7
2015-Jun-10 16:11N 43°03' E 006°05'5 1.4
2015-Jun-10 12:33N 43°05' E 005°58'3 3.4
2015-Jun-10 11:33N 43°07' E 005°55'0 0.0
2015-Jun-09 16:12N 43°07' E 005°55'1 1.3
2015-Jun-09 15:33N 43°07' E 005°54'0 0.1
2015-Jun-09 14:33N 43°07' E 005°54'0 0.1
2015-Jun-09 13:34N 43°07' E 005°54'0 0.1
2015-Jun-09 12:34N 43°07' E 005°54'0 0.1
2015-Jun-09 11:33N 43°07' E 005°54'0 0.0
2015-Jun-09 10:33N 43°07' E 005°54'0 0.0
2015-Jun-09 09:34N 43°07' E 005°54'1 0.5
2015-Jun-09 08:33N 43°06' E 005°55'9 6.7
2015-Jun-09 07:10N 42°57' E 005°52'5 7.9
2015-Jun-09 06:33N 42°53' E 005°48'8 8.1
2015-Jun-09 05:30N 42°46' E 005°42'8 8.3
2015-Jun-09 04:31N 42°39' E 005°36'8 8.3
2015-Jun-09 03:33N 42°32' E 005°30'9 8.4
2015-Jun-09 02:26N 42°25' E 005°24'17 1.3
2015-Jun-08 13:10N 42°29' E 005°46'39 4.5
2015-Jun-08 04:33N 43°07' E 005°55'  

Dump ship's entire track history